PWSweather.com
Personal Weather Stations
Station Observations
KMAMEDFI2
Medfield, MA 02052

Medfield, MA 02052

Lat: 42.1900822, Lon: -71.3296889

Elevation: 138

Station Type: Rainwise WS MK-III

http://www.medfieldweather.com

High Low Average
Temperature 22.9°F-5.1°C 11.1°F-11.6°C 15.8°F-9.0°C
Dew Point 15.9°F-8.9°C -1.4°F-18.6°C 8.5°F-13.1°C
Winds 9.2 mph 14.8 kmh Calm Calm 2.0 mph SW3.2 kmh SW
Wind Gusts 9.2 mph14.8 kmh -- 2.0 mph3.2 kmh
Humidity 93% 39% 76%
Pressure 31.73 in1074.5 mb 30.55 in1034.5 mb -
Precipitation 0.00 in0.0 mm - -
Hour Temp Dew Point Humidity Winds Wind Gusts Pressure Precip Precip Rate Daily Precip Total
12:00 AM 17.6°F-8.0°C 15.9°F-8.9°C 93% 1.2 mph SSW1.9 kmh SSW 1.2 mph1.9 kmh 31.36 in1062.0 mb - 0.00 in0.0 mm 0.00 in0.0 mm
12:10 AM 17.5°F-8.1°C 15.8°F-9.0°C 93% 3.5 mph WSW5.6 kmh WSW 2.3 mph3.7 kmh 31.36 in1062.0 mb - 0.00 in0.0 mm 0.00 in0.0 mm
12:20 AM 17.3°F-8.2°C 15.6°F-9.1°C 93% 4.6 mph NW7.4 kmh NW 5.8 mph9.3 kmh 31.37 in1062.3 mb - 0.00 in0.0 mm 0.00 in0.0 mm
12:30 AM 17.2°F-8.2°C 15.5°F-9.2°C 93% 2.3 mph NNW3.7 kmh NNW 2.3 mph3.7 kmh 31.37 in1062.3 mb - 0.00 in0.0 mm 0.00 in0.0 mm
12:40 AM 17.1°F-8.3°C 15.4°F-9.2°C 93% 1.2 mph SW1.9 kmh SW 1.2 mph1.9 kmh 31.37 in1062.3 mb - 0.00 in0.0 mm 0.00 in0.0 mm
12:50 AM 16.9°F-8.4°C 15.2°F-9.3°C 93% 3.5 mph S5.6 kmh S 3.5 mph5.6 kmh 31.38 in1062.6 mb - 0.00 in0.0 mm 0.00 in0.0 mm
01:00 AM 16.9°F-8.4°C 15.2°F-9.3°C 93% 2.3 mph WSW3.7 kmh WSW 1.2 mph1.9 kmh 31.39 in1063.0 mb - 0.00 in0.0 mm 0.00 in0.0 mm
01:10 AM 16.8°F-8.4°C 15.1°F-9.4°C 93% 5.8 mph WSW9.3 kmh WSW 5.8 mph9.3 kmh 31.40 in1063.3 mb - 0.00 in0.0 mm 0.00 in0.0 mm
01:20 AM 16.7°F-8.5°C 15.0°F-9.4°C 93% 2.3 mph NE3.7 kmh NE 2.3 mph3.7 kmh 31.40 in1063.3 mb - 0.00 in0.0 mm 0.00 in0.0 mm
01:30 AM 16.6°F-8.6°C 14.9°F-9.5°C 93% 1.2 mph WNW1.9 kmh WNW 3.5 mph5.6 kmh 31.41 in1063.7 mb - 0.00 in0.0 mm 0.00 in0.0 mm
01:40 AM 16.6°F-8.6°C 15.0°F-9.4°C 93% 3.5 mph W5.6 kmh W 2.3 mph3.7 kmh 31.41 in1063.7 mb - 0.00 in0.0 mm 0.00 in0.0 mm
01:50 AM 16.4°F-8.7°C 14.8°F-9.6°C 93% 3.5 mph W5.6 kmh W 2.3 mph3.7 kmh 31.42 in1064.0 mb - 0.00 in0.0 mm 0.00 in0.0 mm
02:00 AM 16.2°F-8.8°C 14.6°F-9.7°C 93% 5.8 mph N9.3 kmh N 9.2 mph14.8 kmh 31.44 in1064.7 mb - 0.00 in0.0 mm 0.00 in0.0 mm
02:10 AM 15.9°F-8.9°C 14.3°F-9.8°C 93% 3.5 mph NW5.6 kmh NW 2.3 mph3.7 kmh 31.44 in1064.7 mb - 0.00 in0.0 mm 0.00 in0.0 mm
02:20 AM 15.9°F-8.9°C 14.2°F-9.9°C 93% 3.5 mph WSW5.6 kmh WSW 2.3 mph3.7 kmh 31.44 in1064.7 mb - 0.00 in0.0 mm 0.00 in0.0 mm
02:30 AM 15.8°F-9.0°C 14.2°F-9.9°C 93% 3.5 mph E5.6 kmh E 2.3 mph3.7 kmh 31.44 in1064.7 mb - 0.00 in0.0 mm 0.00 in0.0 mm
02:40 AM 15.6°F-9.1°C 14.0°F-10.0°C 93% 1.2 mph W1.9 kmh W 1.2 mph1.9 kmh 31.44 in1064.7 mb - 0.00 in0.0 mm 0.00 in0.0 mm
02:50 AM 15.4°F-9.2°C 13.8°F-10.1°C 93% 3.5 mph WNW5.6 kmh WNW 2.3 mph3.7 kmh 31.45 in1065.0 mb - 0.00 in0.0 mm 0.00 in0.0 mm
03:00 AM 15.2°F-9.3°C 13.5°F-10.3°C 93% 3.5 mph WSW5.6 kmh WSW 2.3 mph3.7 kmh 31.46 in1065.4 mb - 0.00 in0.0 mm 0.00 in0.0 mm
03:10 AM 14.9°F-9.5°C 13.2°F-10.4°C 93% 4.6 mph SW7.4 kmh SW 3.5 mph5.6 kmh 31.46 in1065.4 mb - 0.00 in0.0 mm 0.00 in0.0 mm
03:20 AM 14.8°F-9.6°C 13.2°F-10.4°C 93% 3.5 mph W5.6 kmh W 8.1 mph13.0 kmh 31.47 in1065.7 mb - 0.00 in0.0 mm 0.00 in0.0 mm
03:30 AM 14.7°F-9.6°C 13.0°F-10.6°C 93% 6.9 mph WSW11.1 kmh WSW 6.9 mph11.1 kmh 31.47 in1065.7 mb - 0.00 in0.0 mm 0.00 in0.0 mm
03:40 AM 14.5°F-9.7°C 12.8°F-10.7°C 93% 2.3 mph WNW3.7 kmh WNW 2.3 mph3.7 kmh 31.48 in1066.0 mb - 0.00 in0.0 mm 0.00 in0.0 mm
03:50 AM 14.2°F-9.9°C 12.6°F-10.8°C 93% 3.5 mph S5.6 kmh S 2.3 mph3.7 kmh 31.48 in1066.0 mb - 0.00 in0.0 mm 0.00 in0.0 mm
04:00 AM 14.1°F-9.9°C 12.4°F-10.9°C 93% 3.5 mph SW5.6 kmh SW 3.5 mph5.6 kmh 31.48 in1066.0 mb - 0.00 in0.0 mm 0.00 in0.0 mm
04:10 AM 13.9°F-10.1°C 12.3°F-10.9°C 93% 3.5 mph W5.6 kmh W 6.9 mph11.1 kmh 31.48 in1066.0 mb - 0.00 in0.0 mm 0.00 in0.0 mm
04:20 AM 13.8°F-10.1°C 12.2°F-11.0°C 93% 3.5 mph WNW5.6 kmh WNW 2.3 mph3.7 kmh 31.49 in1066.4 mb - 0.00 in0.0 mm 0.00 in0.0 mm
04:30 AM 13.5°F-10.3°C 11.9°F-11.2°C 93% Calm Calm -- 31.49 in1066.4 mb - 0.00 in0.0 mm 0.00 in0.0 mm
04:40 AM 13.4°F-10.3°C 11.8°F-11.2°C 93% 2.3 mph NW3.7 kmh NW 2.3 mph3.7 kmh 31.49 in1066.4 mb - 0.00 in0.0 mm 0.00 in0.0 mm
04:50 AM 13.3°F-10.4°C 11.7°F-11.3°C 93% 5.8 mph WNW9.3 kmh WNW 5.8 mph9.3 kmh 31.50 in1066.7 mb - 0.00 in0.0 mm 0.00 in0.0 mm
05:00 AM 13.3°F-10.4°C 11.7°F-11.3°C 93% 3.5 mph NE5.6 kmh NE 2.3 mph3.7 kmh 31.50 in1066.7 mb - 0.00 in0.0 mm 0.00 in0.0 mm
05:10 AM 13.2°F-10.4°C 11.6°F-11.3°C 93% 1.2 mph N1.9 kmh N 1.2 mph1.9 kmh 31.51 in1067.1 mb - 0.00 in0.0 mm 0.00 in0.0 mm
05:20 AM 13.1°F-10.5°C 11.5°F-11.4°C 93% 1.2 mph SW1.9 kmh SW 1.2 mph1.9 kmh 31.51 in1067.1 mb - 0.00 in0.0 mm 0.00 in0.0 mm
05:30 AM 13.1°F-10.5°C 11.5°F-11.4°C 93% 5.8 mph NW9.3 kmh NW 5.8 mph9.3 kmh 31.52 in1067.4 mb - 0.00 in0.0 mm 0.00 in0.0 mm
05:40 AM 13.1°F-10.5°C 11.5°F-11.4°C 93% 3.5 mph NW5.6 kmh NW 2.3 mph3.7 kmh 31.53 in1067.7 mb - 0.00 in0.0 mm 0.00 in0.0 mm
05:50 AM 13.1°F-10.5°C 11.5°F-11.4°C 93% 2.3 mph WNW3.7 kmh WNW 2.3 mph3.7 kmh 31.54 in1068.1 mb - 0.00 in0.0 mm 0.00 in0.0 mm
06:00 AM 13.1°F-10.5°C 11.5°F-11.4°C 93% 4.6 mph WSW7.4 kmh WSW 3.5 mph5.6 kmh 31.54 in1068.1 mb - 0.00 in0.0 mm 0.00 in0.0 mm
06:10 AM 12.9°F-10.6°C 11.3°F-11.5°C 93% 1.2 mph NW1.9 kmh NW 2.3 mph3.7 kmh 31.55 in1068.4 mb - 0.00 in0.0 mm 0.00 in0.0 mm
06:20 AM 12.9°F-10.6°C 11.3°F-11.5°C 93% 6.9 mph WNW11.1 kmh WNW 6.9 mph11.1 kmh 31.56 in1068.7 mb - 0.00 in0.0 mm 0.00 in0.0 mm
06:30 AM 12.9°F-10.6°C 11.3°F-11.5°C 93% 5.8 mph W9.3 kmh W 9.2 mph14.8 kmh 31.57 in1069.1 mb - 0.00 in0.0 mm 0.00 in0.0 mm
06:40 AM 12.9°F-10.6°C 11.3°F-11.5°C 93% 3.5 mph NNW5.6 kmh NNW 2.3 mph3.7 kmh 31.58 in1069.4 mb - 0.00 in0.0 mm 0.00 in0.0 mm
06:50 AM 12.9°F-10.6°C 11.3°F-11.5°C 93% 2.3 mph WNW3.7 kmh WNW 2.3 mph3.7 kmh 31.58 in1069.4 mb - 0.00 in0.0 mm 0.00 in0.0 mm
07:00 AM 12.9°F-10.6°C 11.3°F-11.5°C 93% 3.5 mph W5.6 kmh W 2.3 mph3.7 kmh 31.59 in1069.8 mb - 0.00 in0.0 mm 0.00 in0.0 mm
07:10 AM 12.8°F-10.7°C 11.2°F-11.6°C 93% 2.3 mph W3.7 kmh W 2.3 mph3.7 kmh 31.59 in1069.8 mb - 0.00 in0.0 mm 0.00 in0.0 mm
07:20 AM 12.7°F-10.7°C 11.1°F-11.6°C 93% 3.5 mph NW5.6 kmh NW 5.8 mph9.3 kmh 31.60 in1070.1 mb - 0.00 in0.0 mm 0.00 in0.0 mm
07:30 AM 12.7°F-10.7°C 11.0°F-11.7°C 93% 3.5 mph WNW5.6 kmh WNW 2.3 mph3.7 kmh 31.60 in1070.1 mb - 0.00 in0.0 mm 0.00 in0.0 mm
07:40 AM 12.7°F-10.7°C 10.8°F-11.8°C 92% 2.3 mph SW3.7 kmh SW 2.3 mph3.7 kmh 31.59 in1069.8 mb - 0.00 in0.0 mm 0.00 in0.0 mm
07:50 AM 12.9°F-10.6°C 10.5°F-11.9°C 90% 3.5 mph NNE5.6 kmh NNE 2.3 mph3.7 kmh 31.58 in1069.4 mb - 0.00 in0.0 mm 0.00 in0.0 mm
08:00 AM 13.3°F-10.4°C 10.4°F-12.0°C 88% 3.5 mph NW5.6 kmh NW 3.5 mph5.6 kmh 31.57 in1069.1 mb - 0.00 in0.0 mm 0.00 in0.0 mm
08:10 AM 13.7°F-10.2°C 11.1°F-11.6°C 89% 3.5 mph WNW5.6 kmh WNW 2.3 mph3.7 kmh 31.55 in1068.4 mb - 0.00 in0.0 mm 0.00 in0.0 mm
08:20 AM 13.9°F-10.1°C 11.0°F-11.7°C 88% 1.2 mph NW1.9 kmh NW 2.3 mph3.7 kmh 31.54 in1068.1 mb - 0.00 in0.0 mm 0.00 in0.0 mm
08:30 AM 14.1°F-9.9°C 10.7°F-11.8°C 86% 3.5 mph NNW5.6 kmh NNW 1.2 mph1.9 kmh 31.52 in1067.4 mb - 0.00 in0.0 mm 0.00 in0.0 mm
08:40 AM 14.4°F-9.8°C 6.7°F-14.1°C 71% 3.5 mph NNW5.6 kmh NNW 6.9 mph11.1 kmh 31.43 in1064.3 mb - 0.00 in0.0 mm 0.00 in0.0 mm
08:50 AM 14.8°F-9.6°C 7.7°F-13.5°C 73% 3.5 mph NNE5.6 kmh NNE 2.3 mph3.7 kmh 31.31 in1060.3 mb - 0.00 in0.0 mm 0.00 in0.0 mm
09:00 AM 15.2°F-9.3°C 7.5°F-13.6°C 71% Calm Calm -- 31.32 in1060.6 mb - 0.00 in0.0 mm 0.00 in0.0 mm
09:10 AM 15.6°F-9.1°C 7.2°F-13.8°C 69% 2.3 mph N3.7 kmh N 1.2 mph1.9 kmh 31.30 in1059.9 mb - 0.00 in0.0 mm 0.00 in0.0 mm
09:20 AM 15.4°F-9.2°C 6.4°F-14.2°C 67% 1.2 mph NW1.9 kmh NW 1.2 mph1.9 kmh 31.11 in1053.5 mb - 0.00 in0.0 mm 0.00 in0.0 mm
09:30 AM 15.9°F-8.9°C 4.1°F-15.5°C 59% 2.3 mph NE3.7 kmh NE 2.3 mph3.7 kmh 31.03 in1050.8 mb - 0.00 in0.0 mm 0.00 in0.0 mm
09:40 AM 16.5°F-8.6°C 5.4°F-14.8°C 61% 3.5 mph E5.6 kmh E 5.8 mph9.3 kmh 31.10 in1053.2 mb - 0.00 in0.0 mm 0.00 in0.0 mm
09:50 AM 17.2°F-8.2°C 1.3°F-17.1°C 49% 3.5 mph W5.6 kmh W 2.3 mph3.7 kmh 31.04 in1051.1 mb - 0.00 in0.0 mm 0.00 in0.0 mm
10:00 AM 17.3°F-8.2°C 1.8°F-16.8°C 50% 3.5 mph SSE5.6 kmh SSE 2.3 mph3.7 kmh 30.94 in1047.7 mb - 0.00 in0.0 mm 0.00 in0.0 mm
10:10 AM 17.9°F-7.8°C -1.4°F-18.6°C 42% 4.6 mph E7.4 kmh E 2.3 mph3.7 kmh 30.55 in1034.5 mb - 0.00 in0.0 mm 0.00 in0.0 mm
10:20 AM 18.4°F-7.6°C 0.1°F-17.7°C 44% 6.9 mph NW11.1 kmh NW 5.8 mph9.3 kmh 30.96 in1048.4 mb - 0.00 in0.0 mm 0.00 in0.0 mm
10:30 AM 18.5°F-7.5°C 1.1°F-17.2°C 46% Calm Calm -- 30.68 in1038.9 mb - 0.00 in0.0 mm 0.00 in0.0 mm
10:40 AM 18.9°F-7.3°C -0.5°F-18.1°C 42% 1.2 mph W1.9 kmh W 5.8 mph9.3 kmh 30.55 in1034.5 mb - 0.00 in0.0 mm 0.00 in0.0 mm
10:50 AM 19.9°F-6.7°C -0.1°F-17.8°C 41% 4.6 mph N7.4 kmh N 2.3 mph3.7 kmh 30.55 in1034.5 mb - 0.00 in0.0 mm 0.00 in0.0 mm
11:00 AM 20.0°F-6.7°C -1.0°F-18.3°C 39% 2.3 mph SSE3.7 kmh SSE 5.8 mph9.3 kmh 30.55 in1034.5 mb - 0.00 in0.0 mm 0.00 in0.0 mm
11:10 AM 19.7°F-6.8°C -0.2°F-17.9°C 41% 2.3 mph NW3.7 kmh NW 2.3 mph3.7 kmh 30.72 in1040.3 mb - 0.00 in0.0 mm 0.00 in0.0 mm
11:20 AM 19.6°F-6.9°C 1.6°F-16.9°C 45% 6.9 mph SW11.1 kmh SW 6.9 mph11.1 kmh 30.84 in1044.4 mb - 0.00 in0.0 mm 0.00 in0.0 mm
11:30 AM 19.9°F-6.7°C 2.4°F-16.4°C 46% 6.9 mph NE11.1 kmh NE 3.5 mph5.6 kmh 30.86 in1045.0 mb - 0.00 in0.0 mm 0.00 in0.0 mm
11:40 AM 20.3°F-6.5°C 2.3°F-16.5°C 45% 9.2 mph E14.8 kmh E 9.2 mph14.8 kmh 30.90 in1046.4 mb - 0.00 in0.0 mm 0.00 in0.0 mm
11:50 AM 20.5°F-6.4°C 3.0°F-16.1°C 46% 1.2 mph SE1.9 kmh SE 1.2 mph1.9 kmh 30.90 in1046.4 mb - 0.00 in0.0 mm 0.00 in0.0 mm
12:00 PM 20.9°F-6.2°C 1.9°F-16.7°C 43% 3.5 mph ENE5.6 kmh ENE 3.5 mph5.6 kmh 30.91 in1046.7 mb - 0.00 in0.0 mm 0.00 in0.0 mm
12:10 PM 21.2°F-6.0°C 1.6°F-16.9°C 42% 3.5 mph WNW5.6 kmh WNW 3.5 mph5.6 kmh 30.91 in1046.7 mb - 0.00 in0.0 mm 0.00 in0.0 mm
12:20 PM 21.3°F-5.9°C 1.7°F-16.8°C 42% 3.5 mph SSE5.6 kmh SSE 8.1 mph13.0 kmh 30.92 in1047.1 mb - 0.00 in0.0 mm 0.00 in0.0 mm
12:30 PM 20.9°F-6.2°C 0.8°F-17.3°C 41% 3.5 mph NNW5.6 kmh NNW 3.5 mph5.6 kmh 30.93 in1047.4 mb - 0.00 in0.0 mm 0.00 in0.0 mm
12:40 PM 21.1°F-6.1°C 1.0°F-17.2°C 41% 3.5 mph N5.6 kmh N 2.3 mph3.7 kmh 30.91 in1046.7 mb - 0.00 in0.0 mm 0.00 in0.0 mm
12:50 PM 21.7°F-5.7°C 1.6°F-16.9°C 41% 5.8 mph NE9.3 kmh NE 8.1 mph13.0 kmh 30.89 in1046.1 mb - 0.00 in0.0 mm 0.00 in0.0 mm
01:00 PM 21.7°F-5.7°C 1.0°F-17.2°C 40% 2.3 mph SSW3.7 kmh SSW 2.3 mph3.7 kmh 30.92 in1047.1 mb - 0.00 in0.0 mm 0.00 in0.0 mm
01:10 PM 21.8°F-5.7°C 1.7°F-16.8°C 41% 2.3 mph SE3.7 kmh SE 2.3 mph3.7 kmh 30.90 in1046.4 mb - 0.00 in0.0 mm 0.00 in0.0 mm
01:20 PM 21.9°F-5.6°C 2.3°F-16.5°C 42% 2.3 mph W3.7 kmh W 2.3 mph3.7 kmh 30.93 in1047.4 mb - 0.00 in0.0 mm 0.00 in0.0 mm
01:30 PM 22.4°F-5.3°C 3.2°F-16.0°C 43% 1.2 mph E1.9 kmh E 8.1 mph13.0 kmh 30.92 in1047.1 mb - 0.00 in0.0 mm 0.00 in0.0 mm
01:40 PM 22.9°F-5.1°C 3.2°F-16.0°C 42% 2.3 mph NW3.7 kmh NW 1.2 mph1.9 kmh 30.90 in1046.4 mb - 0.00 in0.0 mm 0.00 in0.0 mm
01:50 PM 22.8°F-5.1°C 3.6°F-15.8°C 43% 1.2 mph ENE1.9 kmh ENE 2.3 mph3.7 kmh 30.95 in1048.1 mb - 0.00 in0.0 mm 0.00 in0.0 mm
02:00 PM 22.2°F-5.4°C 2.5°F-16.4°C 42% 4.6 mph NW7.4 kmh NW 3.5 mph5.6 kmh 30.98 in1049.1 mb - 0.00 in0.0 mm 0.00 in0.0 mm
02:10 PM 21.9°F-5.6°C 1.2°F-17.1°C 40% 1.2 mph S1.9 kmh S 1.2 mph1.9 kmh 30.99 in1049.4 mb - 0.00 in0.0 mm 0.00 in0.0 mm
02:20 PM 21.7°F-5.7°C 3.6°F-15.8°C 45% 2.3 mph S3.7 kmh S 3.5 mph5.6 kmh 31.05 in1051.5 mb - 0.00 in0.0 mm 0.00 in0.0 mm
02:30 PM 21.5°F-5.8°C 4.8°F-15.1°C 48% 1.2 mph NE1.9 kmh NE 2.3 mph3.7 kmh 31.09 in1052.8 mb - 0.00 in0.0 mm 0.00 in0.0 mm
02:40 PM 21.1°F-6.1°C 4.4°F-15.3°C 48% 2.3 mph NNE3.7 kmh NNE 2.3 mph3.7 kmh 31.12 in1053.8 mb - 0.00 in0.0 mm 0.00 in0.0 mm
02:50 PM 20.9°F-6.2°C 4.3°F-15.4°C 48% 1.2 mph NW1.9 kmh NW 2.3 mph3.7 kmh 31.13 in1054.2 mb - 0.00 in0.0 mm 0.00 in0.0 mm
03:00 PM 20.6°F-6.3°C 4.0°F-15.6°C 48% 3.5 mph SW5.6 kmh SW 9.2 mph14.8 kmh 31.15 in1054.9 mb - 0.00 in0.0 mm 0.00 in0.0 mm
03:10 PM 20.5°F-6.4°C 5.2°F-14.9°C 51% 1.2 mph SE1.9 kmh SE 1.2 mph1.9 kmh 31.13 in1054.2 mb - 0.00 in0.0 mm 0.00 in0.0 mm
03:20 PM 20.9°F-6.2°C 4.3°F-15.4°C 48% 1.2 mph WNW1.9 kmh WNW 5.8 mph9.3 kmh 31.10 in1053.2 mb - 0.00 in0.0 mm 0.00 in0.0 mm
03:30 PM 20.7°F-6.3°C 4.1°F-15.5°C 48% 1.2 mph SE1.9 kmh SE 2.3 mph3.7 kmh 31.13 in1054.2 mb - 0.00 in0.0 mm 0.00 in0.0 mm
03:40 PM 20.3°F-6.5°C 4.6°F-15.2°C 50% 2.3 mph NW3.7 kmh NW 3.5 mph5.6 kmh 31.15 in1054.9 mb - 0.00 in0.0 mm 0.00 in0.0 mm
03:50 PM 19.9°F-6.7°C 4.2°F-15.4°C 50% 1.2 mph N1.9 kmh N -- 31.18 in1055.9 mb - 0.00 in0.0 mm 0.00 in0.0 mm
04:00 PM 19.6°F-6.9°C 4.4°F-15.3°C 51% 3.5 mph E5.6 kmh E 3.5 mph5.6 kmh 31.20 in1056.6 mb - 0.00 in0.0 mm 0.00 in0.0 mm
04:10 PM 19.3°F-7.1°C 4.5°F-15.3°C 52% Calm Calm -- 31.22 in1057.2 mb - 0.00 in0.0 mm 0.00 in0.0 mm
04:20 PM 18.8°F-7.3°C 4.9°F-15.1°C 54% 3.5 mph E5.6 kmh E 2.3 mph3.7 kmh 31.24 in1057.9 mb - 0.00 in0.0 mm 0.00 in0.0 mm
04:30 PM 18.5°F-7.5°C 5.0°F-15.0°C 55% Calm Calm -- 31.26 in1058.6 mb - 0.00 in0.0 mm 0.00 in0.0 mm
04:40 PM 17.9°F-7.8°C 6.3°F-14.3°C 60% Calm Calm -- 31.28 in1059.3 mb - 0.00 in0.0 mm 0.00 in0.0 mm
04:50 PM 17.6°F-8.0°C 6.8°F-14.0°C 62% 1.2 mph W1.9 kmh W 2.3 mph3.7 kmh 31.30 in1059.9 mb - 0.00 in0.0 mm 0.00 in0.0 mm
05:00 PM 17.4°F-8.1°C 7.3°F-13.7°C 64% Calm Calm -- 31.31 in1060.3 mb - 0.00 in0.0 mm 0.00 in0.0 mm
05:10 PM 16.8°F-8.4°C 8.1°F-13.3°C 68% Calm Calm -- 31.33 in1061.0 mb - 0.00 in0.0 mm 0.00 in0.0 mm
05:20 PM 15.9°F-8.9°C 7.8°F-13.4°C 70% Calm Calm -- 31.36 in1062.0 mb - 0.00 in0.0 mm 0.00 in0.0 mm
05:30 PM 15.6°F-9.1°C 8.8°F-12.9°C 74% Calm Calm -- 31.37 in1062.3 mb - 0.00 in0.0 mm 0.00 in0.0 mm
05:40 PM 14.9°F-9.5°C 8.7°F-12.9°C 76% Calm Calm -- 31.39 in1063.0 mb - 0.00 in0.0 mm 0.00 in0.0 mm
05:50 PM 14.8°F-9.6°C 10.3°F-12.1°C 82% Calm Calm -- 31.40 in1063.3 mb - 0.00 in0.0 mm 0.00 in0.0 mm
06:00 PM 13.9°F-10.1°C 9.4°F-12.6°C 82% Calm Calm -- 31.42 in1064.0 mb - 0.00 in0.0 mm 0.00 in0.0 mm
06:10 PM 13.3°F-10.4°C 9.9°F-12.3°C 86% Calm Calm -- 31.44 in1064.7 mb - 0.00 in0.0 mm 0.00 in0.0 mm
06:20 PM 13.1°F-10.5°C 10.4°F-12.0°C 89% Calm Calm -- 31.45 in1065.0 mb - 0.00 in0.0 mm 0.00 in0.0 mm
06:30 PM 12.9°F-10.6°C 10.5°F-11.9°C 90% Calm Calm -- 31.47 in1065.7 mb - 0.00 in0.0 mm 0.00 in0.0 mm
06:40 PM 12.9°F-10.6°C 11.0°F-11.7°C 92% Calm Calm -- 31.48 in1066.0 mb - 0.00 in0.0 mm 0.00 in0.0 mm
06:50 PM 13.5°F-10.3°C 10.8°F-11.8°C 89% 1.2 mph SW1.9 kmh SW 1.2 mph1.9 kmh 31.50 in1066.7 mb - 0.00 in0.0 mm 0.00 in0.0 mm
07:00 PM 13.7°F-10.2°C 10.3°F-12.1°C 86% Calm Calm -- 31.52 in1067.4 mb - 0.00 in0.0 mm 0.00 in0.0 mm
07:10 PM 13.5°F-10.3°C 10.4°F-12.0°C 87% Calm Calm -- 31.53 in1067.7 mb - 0.00 in0.0 mm 0.00 in0.0 mm
07:20 PM 13.3°F-10.4°C 10.1°F-12.2°C 87% Calm Calm -- 31.54 in1068.1 mb - 0.00 in0.0 mm 0.00 in0.0 mm
07:30 PM 13.7°F-10.2°C 9.5°F-12.5°C 83% Calm Calm 1.2 mph1.9 kmh 31.56 in1068.7 mb - 0.00 in0.0 mm 0.00 in0.0 mm
07:40 PM 13.8°F-10.1°C 10.1°F-12.2°C 85% Calm Calm -- 31.57 in1069.1 mb - 0.00 in0.0 mm 0.00 in0.0 mm
07:50 PM 13.7°F-10.2°C 9.2°F-12.7°C 82% Calm Calm -- 31.58 in1069.4 mb - 0.00 in0.0 mm 0.00 in0.0 mm
08:00 PM 13.6°F-10.2°C 9.7°F-12.4°C 84% Calm Calm -- 31.60 in1070.1 mb - 0.00 in0.0 mm 0.00 in0.0 mm
08:10 PM 13.4°F-10.3°C 9.5°F-12.5°C 84% Calm Calm -- 31.61 in1070.4 mb - 0.00 in0.0 mm 0.00 in0.0 mm
08:20 PM 12.9°F-10.6°C 9.2°F-12.7°C 85% Calm Calm -- 31.62 in1070.8 mb - 0.00 in0.0 mm 0.00 in0.0 mm
08:30 PM 12.3°F-10.9°C 9.4°F-12.6°C 88% Calm Calm 1.2 mph1.9 kmh 31.63 in1071.1 mb - 0.00 in0.0 mm 0.00 in0.0 mm
08:40 PM 12.2°F-11.0°C 9.3°F-12.6°C 88% Calm Calm -- 31.64 in1071.5 mb - 0.00 in0.0 mm 0.00 in0.0 mm
08:50 PM 12.0°F-11.1°C 8.9°F-12.8°C 87% Calm Calm -- 31.65 in1071.8 mb - 0.00 in0.0 mm 0.00 in0.0 mm
09:00 PM 12.2°F-11.0°C 9.6°F-12.4°C 89% Calm Calm -- 31.65 in1071.8 mb - 0.00 in0.0 mm 0.00 in0.0 mm
09:10 PM 12.3°F-10.9°C 9.9°F-12.3°C 90% Calm Calm -- 31.66 in1072.1 mb - 0.00 in0.0 mm 0.00 in0.0 mm
09:20 PM 11.9°F-11.2°C 9.8°F-12.3°C 91% Calm Calm -- 31.66 in1072.1 mb - 0.00 in0.0 mm 0.00 in0.0 mm
09:30 PM 11.8°F-11.2°C 9.9°F-12.3°C 92% Calm Calm -- 31.68 in1072.8 mb - 0.00 in0.0 mm 0.00 in0.0 mm
09:40 PM 11.7°F-11.3°C 9.8°F-12.3°C 92% Calm Calm -- 31.67 in1072.5 mb - 0.00 in0.0 mm 0.00 in0.0 mm
09:50 PM 11.4°F-11.4°C 9.7°F-12.4°C 93% Calm Calm 1.2 mph1.9 kmh 31.68 in1072.8 mb - 0.00 in0.0 mm 0.00 in0.0 mm
10:00 PM 11.8°F-11.2°C 9.9°F-12.3°C 92% 3.5 mph NE5.6 kmh NE 2.3 mph3.7 kmh 31.68 in1072.8 mb - 0.00 in0.0 mm 0.00 in0.0 mm
10:10 PM 11.9°F-11.2°C 10.0°F-12.2°C 92% 1.2 mph E1.9 kmh E 2.3 mph3.7 kmh 31.68 in1072.8 mb - 0.00 in0.0 mm 0.00 in0.0 mm
10:20 PM 12.1°F-11.1°C 10.0°F-12.2°C 91% 3.5 mph WNW5.6 kmh WNW 2.3 mph3.7 kmh 31.69 in1073.1 mb - 0.00 in0.0 mm 0.00 in0.0 mm
10:30 PM 11.8°F-11.2°C 9.9°F-12.3°C 92% 1.2 mph WSW1.9 kmh WSW 1.2 mph1.9 kmh 31.70 in1073.5 mb - 0.00 in0.0 mm 0.00 in0.0 mm
10:40 PM 11.8°F-11.2°C 9.9°F-12.3°C 92% 3.5 mph W5.6 kmh W 2.3 mph3.7 kmh 31.71 in1073.8 mb - 0.00 in0.0 mm 0.00 in0.0 mm
10:50 PM 11.6°F-11.3°C 10.0°F-12.2°C 93% 1.2 mph W1.9 kmh W 1.2 mph1.9 kmh 31.72 in1074.2 mb - 0.00 in0.0 mm 0.00 in0.0 mm
11:00 PM 11.5°F-11.4°C 9.9°F-12.3°C 93% 2.3 mph NW3.7 kmh NW 2.3 mph3.7 kmh 31.72 in1074.2 mb - 0.00 in0.0 mm 0.00 in0.0 mm
11:10 PM 11.3°F-11.5°C 9.7°F-12.4°C 93% Calm Calm -- 31.72 in1074.2 mb - 0.00 in0.0 mm 0.00 in0.0 mm
11:20 PM 11.2°F-11.6°C 9.5°F-12.5°C 93% 1.2 mph SE1.9 kmh SE 1.2 mph1.9 kmh 31.72 in1074.2 mb - 0.00 in0.0 mm 0.00 in0.0 mm
11:30 PM 11.2°F-11.6°C 9.5°F-12.5°C 93% 1.2 mph NE1.9 kmh NE 1.2 mph1.9 kmh 31.72 in1074.2 mb - 0.00 in0.0 mm 0.00 in0.0 mm
11:40 PM 11.1°F-11.6°C 9.5°F-12.5°C 93% 3.5 mph WSW5.6 kmh WSW 2.3 mph3.7 kmh 31.72 in1074.2 mb - 0.00 in0.0 mm 0.00 in0.0 mm
11:50 PM 11.1°F-11.6°C 9.5°F-12.5°C 93% 3.5 mph NW5.6 kmh NW 2.3 mph3.7 kmh 31.73 in1074.5 mb - 0.00 in0.0 mm 0.00 in0.0 mm